Time;durP1;ratioP1;P1;durP2;ratioP2;P2;SDS_P1;SDS_P2;PMS_P1;PMS_P2;Temp;Humidity;BMP_temperature;BMP_pressure;BME280_temperature;BME280_humidity;BME280_pressure;Samples;Min_cycle;Max_cycle;Signal;HPM_P1;HPM_P2
2022/02/06 00:01:38;;;;;;;0.00;0.00;;;;;;;7.52;58.48;99431.59;6123449;23;20005;-81
2022/02/06 00:04:51;;;;;;;0.10;0.10;;;;;;;7.52;58.42;99428.94;6150707;23;20028;-80
2022/02/06 00:11:01;;;;;;;0.00;0.00;;;;;;;7.55;58.82;99432.16;6122494;23;20009;-80
2022/02/06 00:13:27;;;;;;;0.00;0.00;;;;;;;7.54;58.68;99431.34;6156216;23;20428;-79
2022/02/06 00:15:52;;;;;;;0.00;0.00;;;;;;;7.51;58.47;99437.97;6156071;23;20057;-79
2022/02/06 00:18:18;;;;;;;0.17;0.17;;;;;;;7.52;59.06;99444.91;6136099;23;20006;-79
2022/02/06 00:20:53;;;;;;;0.00;0.00;;;;;;;7.53;58.52;99441.19;6100656;23;20016;-81
2022/02/06 00:27:29;;;;;;;0.00;0.00;;;;;;;7.52;59.06;99439.56;6169259;23;20020;-81
2022/02/06 00:30:16;;;;;;;0.00;0.00;;;;;;;7.51;58.41;99443.28;6126080;23;20134;-78
2022/02/06 00:33:42;;;;;;;0.00;0.00;;;;;;;7.50;59.00;99444.31;6124022;23;20013;-78
2022/02/06 00:39:16;;;;;;;0.00;0.00;;;;;;;7.51;58.84;99448.59;6149490;23;20009;-80
2022/02/06 00:42:19;;;;;;;0.00;0.00;;;;;;;7.51;58.69;99450.47;6122654;23;20001;-82
2022/02/06 00:45:35;;;;;;;0.00;0.00;;;;;;;7.48;59.29;99450.94;6180574;23;20005;-79
2022/02/06 00:49:14;;;;;;;0.00;0.00;;;;;;;7.47;59.27;99460.81;6119743;23;20354;-82
2022/02/06 00:56:32;;;;;;;0.00;0.00;;;;;;;7.43;59.13;99462.31;6158642;22;20034;-80
2022/02/06 01:02:51;;;;;;;0.00;0.00;;;;;;;7.33;59.00;99464.84;6154784;23;20397;-80
2022/02/06 01:05:57;;;;;;;0.00;0.00;;;;;;;7.28;59.78;99468.22;6100277;23;20013;-81
2022/02/06 01:12:05;;;;;;;0.52;0.52;;;;;;;7.12;60.51;99461.88;6166734;23;20089;-79
2022/02/06 01:17:29;;;;;;;0.00;0.00;;;;;;;7.01;61.12;99460.91;6149605;23;20048;-79
2022/02/06 01:20:03;;;;;;;0.47;0.47;;;;;;;6.94;61.28;99464.78;6123850;23;20063;-79
2022/02/06 01:22:32;;;;;;;0.00;0.00;;;;;;;6.88;61.68;99459.41;6124515;23;20094;-80
2022/02/06 01:25:12;;;;;;;0.25;0.25;;;;;;;6.85;62.11;99457.22;6125259;23;20005;-80
2022/02/06 01:27:44;;;;;;;0.00;0.00;;;;;;;6.83;62.50;99463.81;6126693;23;20312;-79
2022/02/06 01:30:15;;;;;;;0.10;0.10;;;;;;;6.78;62.97;99458.41;6127682;23;20002;-79
2022/02/06 01:32:49;;;;;;;0.10;0.10;;;;;;;6.78;63.32;99453.09;6124642;23;20010;-79
2022/02/06 01:35:20;;;;;;;0.00;0.00;;;;;;;6.73;63.50;99445.84;6124912;23;20463;-79
2022/02/06 01:38:02;;;;;;;0.05;0.05;;;;;;;6.74;63.24;99450.13;6125799;23;20006;-79
2022/02/06 02:03:00;;;;;;;0.00;0.00;;;;;;;6.86;62.45;99442.03;6150795;23;20078;-79
2022/02/06 02:22:18;;;;;;;0.00;0.00;;;;;;;6.85;61.46;99445.78;6152481;23;20001;-78
2022/02/06 02:33:44;;;;;;;0.00;0.00;;;;;;;6.96;60.06;99452.06;6165423;23;20013;-80
2022/02/06 02:58:52;;;;;;;0.10;0.10;;;;;;;7.00;59.20;99466.47;6158413;22;20073;-83
2022/02/06 03:01:36;;;;;;;0.00;0.00;;;;;;;7.02;58.88;99467.84;6162770;23;20056;-78
2022/02/06 03:04:01;;;;;;;0.40;0.40;;;;;;;7.01;58.55;99471.56;6152075;23;20009;-79
2022/02/06 03:06:27;;;;;;;0.00;0.00;;;;;;;7.03;58.16;99473.97;6124814;23;20088;-78
2022/02/06 03:15:21;;;;;;;0.00;0.00;;;;;;;7.10;57.98;99479.94;6155068;23;20035;-78
2022/02/06 03:17:56;;;;;;;0.00;0.00;;;;;;;7.16;57.06;99486.13;6124675;23;20025;-78
2022/02/06 03:20:22;;;;;;;0.00;0.00;;;;;;;7.17;56.63;99485.09;6124497;23;20045;-80
2022/02/06 03:22:51;;;;;;;0.00;0.00;;;;;;;7.20;56.41;99493.41;6124771;22;20002;-79
2022/02/06 03:25:20;;;;;;;0.00;0.00;;;;;;;7.21;56.02;99492.34;6124580;23;20438;-79
2022/02/06 03:28:22;;;;;;;1.23;0.57;;;;;;;7.22;56.08;99499.25;6125437;23;20414;-80
2022/02/06 03:31:19;;;;;;;0.13;0.13;;;;;;;7.23;55.13;99500.09;6143861;23;20010;-81
2022/02/06 03:40:25;;;;;;;0.10;0.10;;;;;;;7.27;55.24;99505.72;6161290;23;20090;-80
2022/02/06 03:50:53;;;;;;;0.10;0.10;;;;;;;7.13;57.14;99506.06;6279906;22;20022;-81
2022/02/06 03:56:24;;;;;;;0.00;0.00;;;;;;;7.00;58.26;99501.06;6131915;22;20025;-82
2022/02/06 03:59:40;;;;;;;0.00;0.00;;;;;;;6.97;58.90;99510.31;6133740;23;20050;-82
2022/02/06 04:02:06;;;;;;;0.55;0.55;;;;;;;6.89;58.84;99508.84;6091873;23;20026;-79
2022/02/06 04:04:51;;;;;;;1.35;1.25;;;;;;;6.83;59.01;99512.47;6095194;23;19998;-81
2022/02/06 04:07:17;;;;;;;0.10;0.10;;;;;;;6.72;59.72;99511.47;6090828;23;20015;-79
2022/02/06 04:09:51;;;;;;;0.00;0.00;;;;;;;6.70;60.13;99526.88;6248500;22;20344;-80
2022/02/06 04:12:23;;;;;;;0.00;0.00;;;;;;;6.60;60.54;99524.00;6258637;22;20020;-78
2022/02/06 04:15:00;;;;;;;0.00;0.00;;;;;;;6.56;59.92;99521.03;6250080;22;20334;-78
2022/02/06 04:17:29;;;;;;;0.00;0.00;;;;;;;6.53;60.50;99532.13;6274154;22;20004;-78
2022/02/06 04:19:55;;;;;;;0.00;0.00;;;;;;;6.49;60.35;99525.66;6247935;22;20015;-79
2022/02/06 04:22:22;;;;;;;0.00;0.00;;;;;;;6.44;60.28;99522.91;6247424;22;20027;-79
2022/02/06 04:24:48;;;;;;;0.00;0.00;;;;;;;6.48;60.04;99534.72;6274669;22;20086;-81
2022/02/06 04:27:14;;;;;;;0.00;0.00;;;;;;;6.44;60.50;99535.41;6249658;22;20099;-81
2022/02/06 04:29:41;;;;;;;0.00;0.00;;;;;;;6.38;60.29;99542.47;6258641;22;20035;-82
2022/02/06 04:32:08;;;;;;;0.00;0.00;;;;;;;6.29;60.24;99544.69;6247770;22;20015;-82
2022/02/06 04:35:15;;;;;;;0.30;0.30;;;;;;;6.24;60.96;99552.56;6228960;22;20472;-82
2022/02/06 04:37:57;;;;;;;0.00;0.00;;;;;;;6.22;61.19;99559.94;6260082;22;19999;-81
2022/02/06 05:23:00;;;;;;;0.00;0.00;;;;;;;5.65;64.77;99617.09;6120186;23;20067;-81
2022/02/06 05:34:26;;;;;;;0.00;0.00;;;;;;;5.69;64.64;99634.16;6135822;22;20018;-81
2022/02/06 05:37:07;;;;;;;0.00;0.00;;;;;;;5.67;64.34;99633.56;6235211;23;20016;-82
2022/02/06 05:39:32;;;;;;;0.00;0.00;;;;;;;5.68;64.10;99634.41;6200619;23;20097;-80
2022/02/06 05:42:03;;;;;;;0.00;0.00;;;;;;;5.71;63.84;99633.94;6231286;23;20030;-81
2022/02/06 05:47:43;;;;;;;0.00;0.00;;;;;;;5.74;63.81;99647.53;6186205;22;20233;-79
2022/02/06 05:50:08;;;;;;;0.00;0.00;;;;;;;5.78;64.13;99653.22;6183811;22;20108;-79
2022/02/06 05:52:37;;;;;;;0.00;0.00;;;;;;;5.82;63.55;99664.19;6316442;22;20024;-80
2022/02/06 05:55:02;;;;;;;;;;;;;;;5.74;63.81;99657.38;6185803;23;20442;-81
2022/02/06 05:57:28;;;;;;;0.05;0.05;;;;;;;5.78;64.48;99661.16;6183221;22;19903;-79
2022/02/06 06:00:30;;;;;;;0.00;0.00;;;;;;;5.88;64.42;99660.59;6215091;23;20028;-82
2022/02/06 06:06:17;;;;;;;0.10;0.10;;;;;;;6.14;64.81;99667.34;6218808;23;20030;-80
2022/02/06 06:08:43;;;;;;;0.00;0.00;;;;;;;6.27;64.71;99666.28;6182134;23;19996;-79
2022/02/06 06:11:08;;;;;;;0.00;0.00;;;;;;;6.39;64.67;99666.28;6314935;22;20005;-80
2022/02/06 06:13:34;;;;;;;0.00;0.00;;;;;;;6.55;64.27;99670.09;6183423;22;20001;-79
2022/02/06 06:16:00;;;;;;;0.00;0.00;;;;;;;6.73;64.18;99663.81;6183241;22;20004;-79
2022/02/06 06:18:25;;;;;;;0.00;0.00;;;;;;;6.93;63.67;99675.88;6209344;22;20455;-79
2022/02/06 06:20:52;;;;;;;0.00;0.00;;;;;;;7.08;63.56;99670.88;6182423;23;20081;-80
2022/02/06 06:23:18;;;;;;;0.00;0.00;;;;;;;7.24;63.10;99671.97;6314396;22;20012;-79
2022/02/06 06:25:49;;;;;;;0.00;0.00;;;;;;;7.37;62.06;99677.00;6181339;22;20058;-80
2022/02/06 06:28:14;;;;;;;0.00;0.00;;;;;;;7.53;61.51;99685.22;6312781;22;20005;-82
2022/02/06 06:34:05;;;;;;;0.00;0.00;;;;;;;7.78;60.62;99692.06;6208896;23;20020;-82
2022/02/06 06:36:32;;;;;;;;;;;;;;;7.92;60.33;99695.19;6290967;22;20004;-81
2022/02/06 06:42:29;;;;;;;0.00;0.00;;;;;;;8.29;59.93;99686.69;6251576;23;20432;-79
2022/02/06 06:44:54;;;;;;;0.00;0.00;;;;;;;8.34;59.57;99684.09;6215795;23;20004;-80
2022/02/06 06:51:11;;;;;;;0.00;0.00;;;;;;;8.59;58.72;99685.53;6358230;22;20085;-84
2022/02/06 06:54:20;;;;;;;0.00;0.00;;;;;;;8.73;57.83;99692.09;6271073;22;20076;-83
2022/02/06 07:01:09;;;;;;;0.60;0.60;;;;;;;8.90;57.29;99702.72;6314607;22;20535;-82
2022/02/06 07:03:39;;;;;;;0.10;0.10;;;;;;;9.02;57.07;99713.28;6302376;22;20011;-79
2022/02/06 07:06:04;;;;;;;0.00;0.00;;;;;;;9.13;56.98;99709.66;6277397;22;20410;-76
2022/02/06 07:08:30;;;;;;;0.00;0.00;;;;;;;9.22;56.71;99706.56;6276853;22;20026;-77
2022/02/06 07:10:55;;;;;;;1.45;1.13;;;;;;;9.34;56.25;99709.88;6304223;22;20091;-78
2022/02/06 07:13:21;;;;;;;0.52;0.52;;;;;;;9.38;55.95;99712.84;6304551;22;20006;-81
2022/02/06 07:15:52;;;;;;;0.00;0.00;;;;;;;9.42;55.60;99716.63;6277463;22;20155;-77
2022/02/06 07:18:19;;;;;;;0.00;0.00;;;;;;;9.51;56.07;99715.13;6279353;22;20027;-91
2022/02/06 07:20:57;;;;;;;0.00;0.00;;;;;;;9.60;55.35;99720.81;6230362;22;20037;-83
2022/02/06 07:24:09;;;;;;;0.00;0.00;;;;;;;9.71;55.21;99724.38;6254538;22;20071;-87
2022/02/06 07:26:58;;;;;;;0.00;0.00;;;;;;;9.77;54.47;99729.50;6246456;22;19997;-89
2022/02/06 07:29:24;;;;;;;0.00;0.00;;;;;;;9.80;54.71;99730.84;6284900;22;19995;-91
2022/02/06 07:31:54;;;;;;;0.08;0.08;;;;;;;9.81;53.97;99724.47;6310733;22;20003;-88
2022/02/06 07:34:24;;;;;;;0.00;0.00;;;;;;;9.96;54.11;99729.16;6306693;22;20000;-82
2022/02/06 07:36:49;;;;;;;0.75;0.75;;;;;;;10.13;54.50;99729.03;6278105;22;20006;-89
2022/02/06 07:39:16;;;;;;;2.28;1.17;;;;;;;10.19;53.85;99724.50;6277430;22;20440;-88
2022/02/06 07:41:42;;;;;;;0.00;0.00;;;;;;;10.28;54.05;99727.50;6252489;22;20144;-91
2022/02/06 07:44:09;;;;;;;0.00;0.00;;;;;;;10.38;52.32;99731.06;6277874;22;19999;-91
2022/02/06 07:46:48;;;;;;;0.05;0.05;;;;;;;10.44;51.34;99731.91;6278153;22;20056;-94
2022/02/06 07:49:15;;;;;;;;;;;;;;;10.42;52.17;99731.38;6282215;22;20349;-91
2022/02/06 07:51:43;;;;;;;0.20;0.20;;;;;;;10.51;53.78;99732.50;6311857;22;19934;-87
2022/02/06 07:54:09;;;;;;;1.30;1.30;;;;;;;10.53;52.24;99737.59;6308267;22;20013;-89
2022/02/06 07:56:35;;;;;;;0.10;0.10;;;;;;;10.57;51.52;99725.31;6307921;22;20077;-89
2022/02/06 07:59:00;;;;;;;0.43;0.43;;;;;;;10.49;51.63;99718.56;6308082;22;20037;-78
2022/02/06 08:01:26;;;;;;;0.00;0.00;;;;;;;10.64;50.73;99727.75;6307736;22;20091;-82
2022/02/06 08:03:52;;;;;;;0.10;0.10;;;;;;;10.70;50.36;99726.72;6308063;22;20446;-78
2022/02/06 08:06:17;;;;;;;0.00;0.00;;;;;;;10.79;50.65;99738.53;6308066;22;20002;-82
2022/02/06 08:08:43;;;;;;;0.00;0.00;;;;;;;10.85;50.25;99724.13;6307020;22;20081;-78
2022/02/06 08:11:12;;;;;;;0.00;0.00;;;;;;;10.92;49.90;99731.91;6307053;22;20011;-84
2022/02/06 08:13:42;;;;;;;0.00;0.00;;;;;;;10.96;49.13;99730.31;6306988;22;20007;-79
2022/02/06 08:16:07;;;;;;;10.35;0.80;;;;;;;11.04;50.37;99720.97;6308334;22;19999;-79
2022/02/06 08:18:36;;;;;;;0.00;0.00;;;;;;;11.16;49.63;99739.50;6307479;22;20011;-82
2022/02/06 08:21:03;;;;;;;0.43;0.43;;;;;;;11.17;48.48;99733.88;6307899;22;20010;-77
2022/02/06 08:23:29;;;;;;;0.35;0.35;;;;;;;11.21;49.45;99737.63;6335454;22;19999;-78
2022/02/06 08:25:56;;;;;;;0.20;0.20;;;;;;;11.21;49.31;99742.19;6335595;22;20010;-78
2022/02/06 08:28:21;;;;;;;0.93;0.93;;;;;;;11.23;49.25;99736.56;6307744;22;20423;-78
2022/02/06 08:30:47;;;;;;;0.22;0.20;;;;;;;11.15;49.14;99748.59;6335851;22;19998;-77
2022/02/06 08:33:12;;;;;;;0.98;0.98;;;;;;;11.12;50.01;99735.72;6308131;22;20010;-77
2022/02/06 08:35:38;;;;;;;0.00;0.00;;;;;;;11.13;49.27;99732.81;6308119;22;20014;-78
2022/02/06 08:38:03;;;;;;;0.00;0.00;;;;;;;11.15;49.80;99738.69;6335835;22;19999;-78
2022/02/06 08:40:28;;;;;;;0.40;0.40;;;;;;;11.19;48.94;99738.97;6308077;22;20003;-78
2022/02/06 08:42:54;;;;;;;0.40;0.40;;;;;;;11.10;47.81;99740.53;6308443;22;20022;-78
2022/02/06 08:45:20;;;;;;;0.20;0.20;;;;;;;11.14;48.67;99736.28;6307860;22;20458;-78
2022/02/06 08:47:46;;;;;;;0.30;0.30;;;;;;;11.19;49.11;99745.13;6336011;22;20090;-78
2022/02/06 08:50:13;;;;;;;0.00;0.00;;;;;;;11.27;48.39;99741.13;6336020;22;20143;-78
2022/02/06 08:52:39;;;;;;;0.10;0.10;;;;;;;11.32;47.06;99729.63;6335977;22;20018;-77
2022/02/06 08:55:08;;;;;;;1.40;0.95;;;;;;;11.35;47.11;99731.78;6308216;22;20003;-78
2022/02/06 08:57:34;;;;;;;0.63;0.32;;;;;;;11.45;47.07;99747.06;6308135;22;19998;-77
2022/02/06 08:59:59;;;;;;;0.00;0.00;;;;;;;11.50;46.67;99739.84;6308307;22;20002;-78
2022/02/06 09:02:25;;;;;;;1.90;1.00;;;;;;;11.52;47.01;99750.28;6335706;22;20007;-77
2022/02/06 09:04:51;;;;;;;0.00;0.00;;;;;;;11.59;46.61;99739.34;6308218;22;20035;-77
2022/02/06 09:07:18;;;;;;;0.00;0.00;;;;;;;11.64;46.26;99747.38;6307682;22;20158;-77
2022/02/06 09:09:47;;;;;;;0.00;0.00;;;;;;;11.71;45.86;99747.13;6308117;22;20351;-77
2022/02/06 09:12:13;;;;;;;0.00;0.00;;;;;;;11.74;46.54;99741.22;6335983;22;19999;-77
2022/02/06 09:14:39;;;;;;;0.00;0.00;;;;;;;11.78;46.62;99743.13;6335461;22;20057;-77
2022/02/06 09:17:05;;;;;;;0.28;0.28;;;;;;;11.85;46.35;99737.47;6308099;22;20102;-77
2022/02/06 09:19:33;;;;;;;0.10;0.10;;;;;;;11.84;48.26;99746.63;6335428;22;20077;-77
2022/02/06 09:21:59;;;;;;;0.00;0.00;;;;;;;11.82;49.34;99740.72;6337731;22;20010;-77
2022/02/06 09:24:24;;;;;;;0.00;0.00;;;;;;;11.88;49.22;99734.28;6337461;22;20348;-77
2022/02/06 09:26:50;;;;;;;0.00;0.00;;;;;;;11.88;49.35;99723.56;6310150;22;20085;-77
2022/02/06 09:29:16;;;;;;;0.00;0.00;;;;;;;11.91;49.74;99723.00;6310324;22;20029;-78
2022/02/06 09:31:42;;;;;;;0.00;0.00;;;;;;;11.98;49.14;99725.47;6337431;22;20006;-78
2022/02/06 09:36:34;;;;;;;0.00;0.00;;;;;;;11.99;48.98;99711.00;6337293;22;20016;-77
2022/02/06 09:39:00;;;;;;;5.82;0.80;;;;;;;12.07;48.85;99709.63;6337673;22;20006;-77
2022/02/06 09:41:25;;;;;;;0.00;0.00;;;;;;;12.13;48.93;99706.69;6337333;22;19999;-77
2022/02/06 09:43:54;;;;;;;0.00;0.00;;;;;;;12.15;48.41;99701.84;6337753;22;20382;-77
2022/02/06 09:46:20;;;;;;;0.00;0.00;;;;;;;12.10;48.02;99701.88;6337323;22;20037;-78
2022/02/06 09:48:46;;;;;;;0.10;0.10;;;;;;;12.03;48.28;99690.59;6337162;22;20458;-77
2022/02/06 09:51:11;;;;;;;0.00;0.00;;;;;;;11.99;48.18;99692.22;6337012;22;19998;-78
2022/02/06 09:53:38;;;;;;;0.32;0.32;;;;;;;11.94;48.62;99686.84;6336670;22;20487;-77
2022/02/06 09:56:11;;;;;;;0.20;0.20;;;;;;;11.89;48.80;99690.31;6337281;22;20003;-77
2022/02/06 10:01:03;;;;;;;0.45;0.45;;;;;;;11.84;48.36;99688.44;6337599;22;20090;-77
2022/02/06 10:03:36;;;;;;;0.10;0.10;;;;;;;11.88;48.26;99686.03;6309622;22;20002;-77
2022/02/06 10:06:02;;;;;;;0.00;0.00;;;;;;;11.93;47.52;99687.91;6337558;22;20010;-77
2022/02/06 10:08:36;;;;;;;0.47;0.47;;;;;;;11.92;47.61;99681.72;6337161;22;20344;-77
2022/02/06 10:11:16;;;;;;;0.00;0.00;;;;;;;12.03;47.73;99679.88;6309777;22;20013;-77
2022/02/06 10:13:42;;;;;;;0.10;0.10;;;;;;;12.03;47.27;99679.09;6336832;22;20007;-77
2022/02/06 10:16:10;;;;;;;0.13;0.13;;;;;;;12.08;47.22;99682.56;6336923;22;20074;-77
2022/02/06 10:18:36;;;;;;;0.00;0.00;;;;;;;12.12;46.93;99682.81;6309174;22;19999;-76
2022/02/06 10:21:02;;;;;;;0.00;0.00;;;;;;;12.24;47.29;99672.63;6309781;22;20006;-76
2022/02/06 10:23:36;;;;;;;0.00;0.00;;;;;;;12.29;47.32;99664.56;6336966;22;20010;-76
2022/02/06 10:26:09;;;;;;;0.00;0.00;;;;;;;12.21;48.23;99665.13;6336967;22;20010;-76
2022/02/06 10:28:47;;;;;;;0.00;0.00;;;;;;;12.26;48.25;99665.09;6336657;22;20010;-76
2022/02/06 10:31:16;;;;;;;0.15;0.15;;;;;;;12.27;46.00;99653.28;6336539;22;19999;-76
2022/02/06 10:33:41;;;;;;;;;;;;;;;12.30;46.71;99651.94;6337256;22;20055;-76
2022/02/06 10:36:06;;;;;;;0.43;0.43;;;;;;;12.30;46.07;99634.00;6337120;22;19902;-78
2022/02/06 10:38:33;;;;;;;0.00;0.00;;;;;;;12.32;46.46;99639.06;6309051;22;20002;-78
2022/02/06 10:41:18;;;;;;;0.00;0.00;;;;;;;12.39;46.52;99638.78;6336870;22;20010;-76
2022/02/06 10:43:58;;;;;;;0.10;0.10;;;;;;;12.40;46.56;99633.16;6309111;22;20003;-76
2022/02/06 10:46:29;;;;;;;0.00;0.00;;;;;;;12.41;46.88;99633.94;6336739;22;20003;-76
2022/02/06 10:48:57;;;;;;;0.00;0.00;;;;;;;12.41;46.72;99629.38;6309138;22;20500;-76
2022/02/06 10:51:43;;;;;;;0.00;0.00;;;;;;;12.41;45.81;99624.00;6308764;22;20003;-76
2022/02/06 10:54:28;;;;;;;0.03;0.03;;;;;;;12.43;44.85;99621.06;6336930;22;20332;-78
2022/02/06 10:57:14;;;;;;;0.00;0.00;;;;;;;12.43;44.54;99621.88;6314565;22;20359;-77
2022/02/06 10:59:42;;;;;;;0.00;0.00;;;;;;;12.49;44.20;99614.63;6336362;22;20007;-76
2022/02/06 11:02:17;;;;;;;0.00;0.00;;;;;;;12.53;44.35;99609.50;6336966;22;20081;-77
2022/02/06 11:05:09;;;;;;;0.85;0.75;;;;;;;12.50;43.34;99610.84;6336542;22;20002;-76
2022/02/06 11:07:35;;;;;;;0.00;0.00;;;;;;;12.41;43.81;99615.97;6296193;22;20011;-76
2022/02/06 11:10:14;;;;;;;0.50;0.50;;;;;;;12.37;43.66;99600.72;6336606;22;20009;-78
2022/02/06 11:12:41;;;;;;;0.15;0.15;;;;;;;12.33;43.89;99597.78;6336257;22;20006;-78
2022/02/06 11:15:38;;;;;;;0.10;0.10;;;;;;;12.32;43.64;99588.13;6336737;22;20002;-78
2022/02/06 11:18:09;;;;;;;0.40;0.40;;;;;;;12.31;44.45;99591.88;6308802;22;20007;-76
2022/02/06 11:20:35;;;;;;;0.10;0.10;;;;;;;12.35;44.36;99592.13;6308666;22;20010;-76
2022/02/06 11:23:03;;;;;;;0.52;0.38;;;;;;;12.47;43.99;99598.81;6336372;22;20337;-76
2022/02/06 11:25:30;;;;;;;0.30;0.30;;;;;;;12.51;44.18;99587.50;6336091;22;20003;-76
2022/02/06 11:28:00;;;;;;;0.80;0.55;;;;;;;12.54;43.90;99576.22;6336446;22;20243;-76
2022/02/06 11:30:26;;;;;;;0.00;0.00;;;;;;;12.59;43.89;99571.63;6336089;22;20010;-76
2022/02/06 11:32:53;;;;;;;0.00;0.00;;;;;;;12.65;44.23;99570.53;6335959;22;20002;-77
2022/02/06 11:35:22;;;;;;;2.30;0.80;;;;;;;12.66;44.13;99579.38;6308567;22;20006;-78
2022/02/06 11:44:02;;;;;;;0.00;0.00;;;;;;;12.80;43.52;99568.84;6335662;22;20045;-78
2022/02/06 11:46:45;;;;;;;0.00;0.00;;;;;;;12.79;43.38;99551.94;6336058;22;20003;-76
2022/02/06 11:49:16;;;;;;;0.00;0.00;;;;;;;12.82;43.26;99548.69;6307791;22;20027;-78
2022/02/06 11:51:51;;;;;;;0.47;0.47;;;;;;;12.90;43.16;99555.38;6308266;22;20011;-77
2022/02/06 11:54:26;;;;;;;0.08;0.08;;;;;;;12.91;43.52;99558.84;6336664;22;20007;-78
2022/02/06 11:57:13;;;;;;;0.00;0.00;;;;;;;12.89;43.53;99551.06;6336225;22;19998;-78
2022/02/06 11:59:38;;;;;;;0.00;0.00;;;;;;;12.93;42.44;99537.91;6307904;22;20034;-78
2022/02/06 12:02:37;;;;;;;0.00;0.00;;;;;;;12.97;42.28;99538.94;6335974;22;20003;-78
2022/02/06 12:05:17;;;;;;;0.20;0.20;;;;;;;12.99;42.99;99523.34;6312253;22;20069;-78
2022/02/06 12:07:51;;;;;;;0.00;0.00;;;;;;;13.06;42.82;99521.16;6307445;22;20002;-78
2022/02/06 12:10:37;;;;;;;0.00;0.00;;;;;;;13.10;41.60;99519.50;6307711;22;20427;-76
2022/02/06 12:13:30;;;;;;;0.20;0.20;;;;;;;13.11;41.79;99515.72;6271155;22;20011;-76
2022/02/06 12:16:00;;;;;;;0.00;0.00;;;;;;;13.13;41.97;99510.91;6307276;22;20380;-76
2022/02/06 12:18:34;;;;;;;0.93;0.80;;;;;;;13.12;41.83;99500.41;6334302;22;20056;-76
2022/02/06 12:21:13;;;;;;;0.00;0.00;;;;;;;13.16;41.61;99504.16;6307201;22;20010;-77
2022/02/06 12:23:50;;;;;;;0.13;0.13;;;;;;;13.16;41.50;99496.09;6334595;22;20002;-77
2022/02/06 12:26:28;;;;;;;0.00;0.00;;;;;;;13.21;41.48;99495.25;6335085;22;20077;-77
2022/02/06 12:29:02;;;;;;;0.00;0.00;;;;;;;13.24;41.74;99489.31;6334889;22;20002;-77
2022/02/06 12:31:29;;;;;;;0.38;0.38;;;;;;;13.29;41.62;99479.31;6334595;22;20006;-76
2022/02/06 12:39:23;;;;;;;0.00;0.00;;;;;;;13.48;41.06;99477.84;6334623;22;20622;-77
2022/02/06 12:41:49;;;;;;;0.10;0.10;;;;;;;13.51;40.83;99466.50;6307368;22;20007;-77
2022/02/06 12:44:16;;;;;;;0.00;0.00;;;;;;;13.52;40.80;99468.13;6335104;22;20466;-77
2022/02/06 12:46:47;;;;;;;0.13;0.13;;;;;;;13.55;40.51;99462.97;6334890;22;20006;-76
2022/02/06 12:49:15;;;;;;;0.00;0.00;;;;;;;13.54;40.37;99469.44;6306865;22;19999;-77
2022/02/06 12:51:41;;;;;;;0.00;0.00;;;;;;;13.56;40.59;99466.44;6306514;22;20012;-76
2022/02/06 12:54:12;;;;;;;0.10;0.10;;;;;;;13.57;40.35;99465.38;6334462;22;20013;-76
2022/02/06 12:56:39;;;;;;;0.13;0.13;;;;;;;13.60;40.59;99462.91;6336600;22;20010;-77
2022/02/06 12:59:05;;;;;;;0.10;0.10;;;;;;;13.59;40.54;99455.94;6309152;22;20007;-76
2022/02/06 13:01:38;;;;;;;0.52;0.50;;;;;;;13.60;41.06;99448.69;6336554;22;20005;-76
2022/02/06 13:04:04;;;;;;;0.00;0.00;;;;;;;13.65;40.83;99454.00;6337058;22;20030;-78
2022/02/06 13:06:41;;;;;;;0.00;0.00;;;;;;;13.64;40.53;99444.34;6309005;22;20436;-78
2022/02/06 13:09:15;;;;;;;0.52;0.52;;;;;;;13.67;40.26;99453.72;6309251;22;20041;-78
2022/02/06 13:11:46;;;;;;;0.20;0.20;;;;;;;13.70;39.86;99447.78;6336535;22;20003;-78
2022/02/06 13:19:40;;;;;;;0.20;0.20;;;;;;;13.77;40.14;99440.16;6336912;22;20420;-77
2022/02/06 13:30:07;;;;;;;0.45;0.45;;;;;;;13.84;39.51;99427.19;6337356;22;20404;-77
2022/02/06 13:32:43;;;;;;;3.00;2.30;;;;;;;13.86;38.85;99429.56;6337070;22;20002;-76
2022/02/06 13:38:00;;;;;;;0.20;0.20;;;;;;;13.83;38.82;99417.50;6337397;22;20073;-78
2022/02/06 13:40:33;;;;;;;0.00;0.00;;;;;;;13.88;39.19;99416.66;6309680;22;20074;-77
2022/02/06 13:43:07;;;;;;;0.00;0.00;;;;;;;13.91;38.69;99416.88;6309831;22;20385;-76
2022/02/06 13:45:34;;;;;;;0.00;0.00;;;;;;;13.96;39.11;99412.50;6309355;22;20014;-77
2022/02/06 13:48:02;;;;;;;0.63;0.63;;;;;;;13.96;38.35;99418.66;6309781;22;20044;-76
2022/02/06 13:50:30;;;;;;;0.10;0.10;;;;;;;13.99;38.10;99420.78;6336811;22;20074;-77
2022/02/06 13:53:13;;;;;;;0.25;0.25;;;;;;;13.99;38.23;99411.91;6336691;22;20479;-76
2022/02/06 13:55:49;;;;;;;0.00;0.00;;;;;;;14.02;38.23;99414.03;6309122;22;20597;-77
2022/02/06 13:58:16;;;;;;;0.00;0.00;;;;;;;13.97;37.66;99408.72;6309491;22;20002;-77
2022/02/06 14:00:55;;;;;;;0.00;0.00;;;;;;;13.97;37.74;99398.75;6309317;22;20030;-77
2022/02/06 14:03:21;;;;;;;0.00;0.00;;;;;;;13.96;37.96;99396.38;6336524;22;20091;-76
2022/02/06 14:05:51;;;;;;;0.00;0.00;;;;;;;13.92;37.85;99399.63;6309417;22;20040;-76
2022/02/06 14:08:19;;;;;;;0.00;0.00;;;;;;;13.91;38.28;99391.84;6309335;22;20006;-76
2022/02/06 14:11:02;;;;;;;0.28;0.28;;;;;;;13.91;38.33;99381.91;6336912;22;20003;-78
2022/02/06 14:13:28;;;;;;;0.00;0.00;;;;;;;14.00;38.52;99389.31;6336986;22;20052;-76
2022/02/06 14:16:05;;;;;;;0.00;0.00;;;;;;;14.01;38.17;99372.91;6309524;22;20011;-79
2022/02/06 14:18:32;;;;;;;0.00;0.00;;;;;;;13.99;38.26;99372.41;6309033;22;20034;-78
2022/02/06 14:21:00;;;;;;;0.52;0.52;;;;;;;13.99;38.46;99372.41;6337166;22;20007;-76
2022/02/06 14:23:26;;;;;;;0.03;0.03;;;;;;;13.98;38.29;99365.41;6336795;22;20010;-78
2022/02/06 14:25:51;;;;;;;0.00;0.00;;;;;;;13.97;38.42;99369.19;6336930;22;20006;-77
2022/02/06 14:28:22;;;;;;;0.00;0.00;;;;;;;13.97;38.62;99366.50;6308940;22;20007;-76
2022/02/06 14:30:48;;;;;;;0.60;0.52;;;;;;;13.94;38.64;99350.97;6336863;22;20041;-77
2022/02/06 14:33:16;;;;;;;0.00;0.00;;;;;;;13.99;38.66;99363.50;6309164;22;20458;-77
2022/02/06 14:36:03;;;;;;;0.00;0.00;;;;;;;13.96;38.92;99366.78;6336538;22;20030;-76
2022/02/06 14:38:36;;;;;;;0.40;0.40;;;;;;;13.89;39.34;99356.38;6336645;22;20002;-78
2022/02/06 14:43:56;;;;;;;0.00;0.00;;;;;;;13.86;39.94;99352.41;6336900;22;20077;-76
2022/02/06 14:46:22;;;;;;;0.10;0.10;;;;;;;13.85;40.54;99353.47;6336747;22;20073;-76
2022/02/06 14:48:48;;;;;;;0.45;0.45;;;;;;;13.85;40.77;99353.47;6309091;22;20002;-77
2022/02/06 14:51:15;;;;;;;0.08;0.08;;;;;;;13.83;41.03;99346.78;6308776;22;20011;-78
2022/02/06 14:53:41;;;;;;;0.00;0.00;;;;;;;13.78;41.48;99345.00;6309010;22;20517;-77
2022/02/06 14:56:11;;;;;;;0.45;0.45;;;;;;;13.75;41.39;99348.25;6336888;22;20005;-77
2022/02/06 14:58:36;;;;;;;0.10;0.10;;;;;;;13.69;41.75;99346.72;6308628;22;20003;-78
2022/02/06 15:01:02;;;;;;;0.00;0.00;;;;;;;13.68;42.01;99350.50;6309044;22;20017;-77
2022/02/06 15:03:28;;;;;;;0.00;0.00;;;;;;;13.60;42.05;99341.19;6336293;22;20136;-77
2022/02/06 15:05:53;;;;;;;0.10;0.10;;;;;;;13.57;42.25;99345.25;6336620;22;20048;-77
2022/02/06 15:08:19;;;;;;;0.10;0.10;;;;;;;13.50;42.94;99344.00;6336449;22;20014;-77
2022/02/06 15:10:46;;;;;;;0.00;0.00;;;;;;;13.47;42.90;99355.34;6308924;22;20003;-77
2022/02/06 15:13:13;;;;;;;0.38;0.38;;;;;;;13.41;43.50;99349.22;6309258;22;20007;-77
2022/02/06 15:15:51;;;;;;;0.15;0.15;;;;;;;13.38;43.74;99349.81;6336454;22;20003;-77
2022/02/06 15:18:36;;;;;;;;;;;;;;;13.36;43.90;99358.09;6336764;22;20030;-77
2022/02/06 15:21:03;;;;;;;0.00;0.00;;;;;;;13.28;44.49;99351.47;6336250;22;20363;-78
2022/02/06 15:23:29;;;;;;;0.10;0.10;;;;;;;13.24;44.55;99355.84;6336476;22;19999;-77
2022/02/06 15:25:54;;;;;;;2.20;1.08;;;;;;;13.17;45.10;99359.94;6308925;22;20029;-77
2022/02/06 15:28:21;;;;;;;0.00;0.00;;;;;;;13.12;45.51;99350.03;6336400;22;20341;-77
2022/02/06 15:30:47;;;;;;;0.00;0.00;;;;;;;13.01;46.18;99348.56;6308811;22;20056;-77
2022/02/06 15:33:12;;;;;;;0.75;0.75;;;;;;;12.97;46.18;99364.44;6336443;22;20505;-77
2022/02/06 15:35:38;;;;;;;0.00;0.00;;;;;;;12.86;47.22;99362.94;6335320;22;20014;-75
2022/02/06 15:38:05;;;;;;;0.00;0.00;;;;;;;12.81;47.21;99356.50;6336096;22;20003;-79
2022/02/06 15:40:32;;;;;;;0.00;0.00;;;;;;;12.78;47.43;99364.34;6335566;22;20014;-75
2022/02/06 15:42:59;;;;;;;0.00;0.00;;;;;;;12.66;48.27;99348.63;6334443;22;20007;-76
2022/02/06 15:45:25;;;;;;;0.65;0.65;;;;;;;12.60;48.33;99355.13;6307211;22;20003;-76
2022/02/06 15:47:50;;;;;;;1.20;1.10;;;;;;;12.51;48.59;99356.78;6335843;22;20006;-75